Aérodrome :
LOGIN :

S'inscrire | Disclaimer

   EN    FR    IT 

 










Légende :    VFR   VFR Marginal   IFR   IFR Intensif   IFR Très Intensif
Visi : 
Plafond : 
>= 8 km
>= 3000ft
5 à 8 km
1000 à 3000 ft
1500m à 5 km
500 à 1000 ft
800 à 1500m
200 à 500 ft
< 800m
< 200 ft
Symboles :   Orages  Brouillard  Fortes neiges  Fortes précipitations  Vent > 20 kt
SIGMETs :   Divers  Orages  Givrage  Turbulence  Onde Orograph.  Cendres Volcan.






- Altitude de l'aérodrome : 436 ft
- Code IATA : BTS


LZIB - Bratislava

DERNIER METAR :
  • 140630Z 04004KT 9999 FEW012 12/11 Q1020 NOSIG

METARs EXPIRÉS :
  • 140600Z 04005KT 9999 MIFG FEW011 11/10 Q1020 NOSIG
  • 140530Z 04005KT 9000 MIFG FEW010 10/09 Q1020 NOSIG
  • 140500Z 04005KT 8000 MIFG FEW010 09/09 Q1020 NOSIG
  • 140430Z 03006KT 9999 MIFG FEW010 10/09 Q1020 NOSIG
  • 140400Z 05006KT 9999 FEW010 10/09 Q1020 NOSIG

TAF TAF LZIB
Valide du 14 à 06h jusqu'au 15 à 06h UTC


140500Z 1406/1506 02005KT 9999 MIFG FEW010
BECMG 1407/1409 14008KT CAVOK
TEMPO 1501/1506 BKN010



MET'MAP, la Météo Aéronautique d'un coup d'oeil ! - Copyright ORBIFLY Décembre 2007 - Disclaimer

ORBIFLY MET'MAP TEAM :

Programmation & Développement : Alexandra Zaïnal
Conception & Développement : Baudouin d'Aumeries
Co-Programmation & Développement : Marc-Olivier Méhu
Soutien technique & logistique : Manuel Goepfert

Contact : metmap@orbifly.com




SOURCES & CREDITS :

   NOAA